Flight Track Log - Related Links

Times and Time Zones

All times are in EDT time to prevent confusion due to time zone crossing. See the TAM3241 flight status page for this flight to view local times or setup timezone preferences in your user account.

Time Position Orientation Groundspeed Altitude Reporting Facility
EDT Latitude Longitude Course Direction KTS MPH feet Rate Location/Type
Mon 02:42:00 PM -20.2382 -47.7875 163° South  Level Estimated
Mon 02:43:00 PM -20.3229 -47.7599 163° South  Level Estimated
Mon 02:44:00 PM -20.4076 -47.7322 163° South  Level Estimated
Mon 02:45:00 PM -20.4923 -47.7046 163° South  Level Estimated
Mon 02:46:00 PM -20.5769 -47.6768 163° South  Level Estimated
Mon 02:47:00 PM -20.6616 -47.6491 163° South  Level Estimated
Mon 02:48:00 PM -20.7462 -47.6213 163° South  Level Estimated
Mon 02:49:00 PM -20.8309 -47.5935 163° South  Level Estimated
Mon 02:50:00 PM -20.9155 -47.5657 163° South  Level Estimated
Mon 02:51:00 PM -21.0002 -47.5378 163° South  Level Estimated
Mon 02:52:00 PM -21.0848 -47.5099 163° South  Level Estimated
Mon 02:53:00 PM -21.1694 -47.4819 163° South  Level Estimated
Mon 02:54:00 PM -21.2541 -47.4540 163° South  Level Estimated
Mon 02:55:00 PM -21.3387 -47.4260 163° South  Level Estimated
Mon 02:56:00 PM -21.4233 -47.3979 163° South  Level Estimated
Mon 02:57:00 PM -21.5079 -47.3699 163° South  Level Estimated
Mon 02:58:00 PM -21.5925 -47.3418 163° South  Level Estimated
Mon 02:59:00 PM -21.6771 -47.3136 163° South  Level Estimated
Mon 03:00:00 PM -21.7617 -47.2855 163° South  Level Estimated
Mon 03:01:00 PM -21.8463 -47.2573 163° South  Level Estimated
Mon 03:02:00 PM -21.9309 -47.2290 163° South  Level Estimated
Mon 03:03:00 PM -22.0155 -47.2008 163° South  Level Estimated
Mon 03:04:00 PM -22.1001 -47.1725 163° South  Level Estimated
Mon 03:05:00 PM -22.1847 -47.1441 163° South  Level Estimated
Mon 03:06:00 PM -22.2692 -47.1158 163° South  Level Estimated
Mon 03:07:00 PM -22.3538 -47.0874 163° South  Level Estimated
Mon 03:08:00 PM -22.4384 -47.0589 163° South  Level Estimated
Mon 03:09:00 PM -22.5229 -47.0304 163° South  Level Estimated
Mon 03:10:00 PM -22.6075 -47.0019 163° South  Level Estimated
Mon 03:11:00 PM -22.6920 -46.9734 163° South  Level Estimated
Mon 03:12:00 PM -22.7766 -46.9448 163° South  Level Estimated
Mon 03:13:00 PM -22.8611 -46.9162 163° South  Level Estimated
Mon 03:14:00 PM -22.9456 -46.8876 163° South  Level Estimated
Mon 03:15:00 PM -23.0301 -46.8589 163° South  Level Estimated
Mon 03:16:00 PM -23.1147 -46.8302 163° South  Level Estimated
Mon 03:17:00 PM -23.1992 -46.8014 163° South  Level Estimated
Mon 03:18:00 PM -23.2837 -46.7726 163° South  Level Estimated
Mon 03:19:00 PM -23.3682 -46.7438 163° South  Level Estimated
Mon 03:20:00 PM -23.4527 -46.7149 163° South  Level Estimated
Mon 03:21:00 PM -23.5372 -46.6860 163° South  Level Estimated
Mon 03:22:00 PM -23.6217 -46.6571 163° South  Level Estimated
Mon 03:23:00 PM -23.6267 -46.6554 163° South  Level Estimated
Mon 03:24:00 PM -23.6267 -46.6554 114° Southeast  Level Estimated
Mon 03:25:00 PM -23.6267 -46.6554 114° Southeast  Level Estimated
Mon 03:26:00 PM -23.6267 -46.6554 114° Southeast  Level Estimated
Mon 03:27:00 PM -23.6267 -46.6554 114° Southeast  Level Estimated
Mon 03:28:00 PM -23.6267 -46.6554 114° Southeast  Level Estimated
Mon 03:29:00 PM -23.6267 -46.6554 114° Southeast  Level Estimated
Mon 03:30:00 PM -23.6267 -46.6554 114° Southeast  Level Estimated
Mon 03:31:00 PM -23.6267 -46.6554 114° Southeast  Level Estimated

Login

Don't have an account? Register now (free) for customized features, flight alerts, and more!